Latest Weather Observations for Groote Eylandt Airport

IDD60801

Issued at 5:05 am CST Saturday 20 September 2014 (issued every 30 minutes, with the page automatically refreshed every 10 minutes)

About weather observations | Map of weather stations | Latest weather observations for NT | Other Formats
Station Details ID: 014518 Name: GROOTE EYLANDT AIRPORT Lat: -13.97 Lon: 136.46 Height: 13.7 m
Data from the previous 72 hours. | See also: Recent months at Groote Eylandt Airport
Date/Time
CST
Temp
°C
App
Temp
°C
Dew
Point
Rel
Hum
%
Delta-T
°C
Wind Press
QNH
hPa
Press
MSL
hPa
Rain
since 9 am
mm
Dir
 
Spd
km/h
Gust
km/h
Spd
kts
Gust
kts
20/05:00am 14.2 13.7 12.8 91 0.8 E 7 9 4 5 1013.2 1013.1 0.0
20/04:30am 14.4 14.2 13.1 92 0.7 ESE 6 7 3 4 1013.0 1012.9 0.0
20/04:00am 14.9 14.9 13.6 92 0.7 E 6 9 3 5 1012.8 1012.7 0.0
20/03:30am 14.7 15.9 13.7 94 0.6 CALM 0 7 0 4 1012.8 1012.7 0.0
20/03:00am 15.1 16.5 14.5 96 0.3 CALM 0 0 0 0 1013.0 1012.9 0.0
20/02:30am 15.6 17.2 14.8 95 0.5 CALM 0 0 0 0 1013.3 1013.2 0.0
20/02:00am 15.4 16.6 13.9 91 0.8 CALM 0 0 0 0 1013.4 1013.3 0.0
20/01:30am 15.9 16.1 14.1 89 1.0 E 6 9 3 5 1013.6 1013.5 0.0
20/01:00am 16.3 17.7 14.5 89 1.0 CALM 0 0 0 0 1014.0 1013.9 0.0
20/12:30am 16.8 18.4 14.8 88 1.2 CALM 0 0 0 0 1014.3 1014.2 0.0
20/12:00am 17.2 18.4 15.0 87 1.3 E 2 6 1 3 1014.6 1014.5 0.0
 
Date/Time
CST
Temp
°C
App
Temp
°C
Dew
Point
Rel
Hum
%
Delta-T
°C
Wind Press
QNH
hPa
Press
MSL
hPa
Rain
since 9 am
mm
Dir
 
Spd
km/h
Gust
km/h
Spd
kts
Gust
kts
19/11:30pm 17.6 18.5 15.2 86 1.4 E 4 7 2 4 1014.9 1014.8 0.0
19/11:00pm 18.1 19.9 15.4 84 1.6 CALM 0 0 0 0 1015.1 1015.0 0.0
19/10:30pm 18.6 20.3 15.3 81 1.9 E 0 7 0 4 1015.4 1015.3 0.0
19/10:00pm 19.3 21.0 15.2 77 2.4 CALM 0 0 0 0 1015.5 1015.4 0.0
19/09:30pm 20.3 21.4 15.7 75 2.7 E 4 6 2 3 1015.4 1015.3 0.0
19/09:00pm 20.5 22.2 15.1 71 3.2 CALM 0 0 0 0 1015.1 1015.0 0.0
19/08:30pm 21.4 23.0 15.0 67 3.8 CALM 0 0 0 0 1014.8 1014.7 0.0
19/08:00pm 22.8 24.6 15.4 63 4.4 CALM 0 0 0 0 1014.5 1014.4 0.0
19/07:30pm 24.3 24.7 15.2 57 5.5 E 7 7 4 4 1014.1 1014.0 0.0
19/07:00pm 26.4 26.8 14.8 49 7.0 E 6 7 3 4 1013.8 1013.7 0.0
19/06:30pm 27.9 27.6 14.5 44 8.1 ENE 9 13 5 7 1013.6 1013.5 0.0
19/06:00pm 29.4 28.8 13.6 38 9.4 E 9 15 5 8 1013.2 1013.1 0.0
19/05:30pm 30.7 28.7 11.6 31 11.1 E 13 15 7 8 1013.0 1012.9 0.0
19/05:00pm 31.6 29.2 11.4 29 11.8 E 15 19 8 10 1012.9 1012.8 0.0
19/04:30pm 32.0 30.3 11.2 28 12.1 SE 11 17 6 9 1012.8 1012.7 0.0
19/04:00pm 32.3 30.7 11.5 28 12.2 ESE 11 15 6 8 1012.6 1012.5 0.0
19/03:30pm 32.6 29.6 10.6 26 12.7 ENE 17 26 9 14 1012.6 1012.5 0.0
19/03:00pm 32.2 29.4 11.4 28 12.1 ESE 17 24 9 13 1012.7 1012.6 0.0
19/02:30pm 32.9 30.0 10.9 26 12.8 E 17 24 9 13 1012.9 1012.8 0.0
19/02:00pm 33.0 29.4 9.7 24 13.3 E 19 26 10 14 1013.3 1013.2 0.0
19/01:30pm 32.5 29.5 10.5 26 12.7 ESE 17 22 9 12 1013.7 1013.6 0.0
19/01:00pm 32.8 28.9 10.8 26 12.8 E 22 35 12 19 1014.2 1014.1 0.0
19/12:30pm 32.2 28.6 9.7 25 12.8 ESE 19 30 10 16 1014.7 1014.6 0.0
19/12:00pm 32.2 28.8 11.4 28 12.1 ESE 20 30 11 16 1015.1 1015.0 0.0
19/11:30am 32.0 30.0 12.8 31 11.4 ESE 15 26 8 14 1015.5 1015.4 0.0
19/11:00am 32.2 29.2 11.9 29 11.9 E 19 28 10 15 1015.9 1015.8 0.0
19/10:30am 32.1 28.2 10.7 27 12.3 ENE 22 35 12 19 1016.1 1016.0 0.0
19/10:00am 30.9 29.9 14.5 37 10.0 ESE 13 24 7 13 1016.4 1016.3 0.0
19/09:30am 29.5 30.3 17.3 47 7.7 SE 9 15 5 8 1016.6 1016.5 0.0
19/09:00am 27.9 30.3 19.7 61 5.3 ESE 6 9 3 5 1016.5 1016.4 0.0
19/08:30am 25.6 28.1 19.9 70 3.7 S 6 9 3 5 1016.3 1016.2 0.0
19/08:00am 23.4 25.6 19.5 79 2.5 E 7 11 4 6 1016.1 1016.0 0.0
19/07:54am 23.2 25.7 19.8 81 2.2 E 6 11 3 6 1016.2 1016.1 0.0
19/07:30am 20.2 21.5 20.2 100 0.0 NE 13 19 7 10 1015.6 1015.5 0.0
19/07:00am 17.9 20.7 17.9 100 0.0 ESE 0 0 0 0 1014.9 1014.8 0.0
19/06:30am 17.8 20.5 17.8 100 0.0 CALM 0 0 0 0 1014.5 1014.4 0.0
19/06:00am 17.5 20.1 17.5 100 0.0 ESE 0 0 0 0 1014.0 1013.9 0.0
19/05:59am 17.5 20.1 17.5 100 0.0 CALM 0 0 0 0 1014.0 1013.9 0.0
19/05:42am 17.3 19.8 17.3 100 0.0 CALM 0 0 0 0 1013.8 1013.7 0.0
19/05:30am 17.0 19.3 16.8 99 0.1 CALM 0 0 0 0 1013.7 1013.6 0.0
19/05:10am 17.0 19.3 16.8 99 0.1 CALM 0 0 0 0 1013.5 1013.4 0.0
19/05:00am 16.9 19.2 16.7 99 0.1 CALM 0 0 0 0 1013.5 1013.4 0.0
19/04:51am 17.1 19.5 16.9 99 0.1 CALM 0 0 0 0 1013.5 1013.4 0.0
19/04:30am 17.2 19.6 17.0 99 0.1 CALM 0 0 0 0 1013.4 1013.3 0.0
19/04:20am 17.2 19.6 17.0 99 0.1 CALM 0 0 0 0 1013.4 1013.3 0.0
19/04:00am 17.3 19.4 17.1 99 0.1 ESE 2 6 1 3 1013.3 1013.2 0.0
19/03:30am 17.1 18.3 16.9 99 0.1 ESE 6 7 3 4 1013.4 1013.3 0.0
19/03:00am 16.8 17.8 16.3 97 0.3 ESE 6 9 3 5 1013.6 1013.5 0.0
19/02:30am 17.1 18.1 16.3 95 0.5 E 6 7 3 4 1013.7 1013.6 0.0
19/02:00am 17.4 18.7 16.1 92 0.8 ESE 4 7 2 4 1013.9 1013.8 0.0
19/01:30am 18.0 20.3 16.7 92 0.8 CALM 0 0 0 0 1014.3 1014.2 0.0
19/01:00am 18.3 20.4 17.1 93 0.7 S 2 7 1 4 1014.6 1014.5 0.0
19/12:30am 18.9 21.5 17.6 92 0.8 CALM 0 0 0 0 1015.1 1015.0 0.0
19/12:00am 19.2 22.0 17.9 92 0.8 CALM 0 0 0 0 1015.5 1015.4 0.0
 
Date/Time
CST
Temp
°C
App
Temp
°C
Dew
Point
Rel
Hum
%
Delta-T
°C
Wind Press
QNH
hPa
Press
MSL
hPa
Rain
since 9 am
mm
Dir
 
Spd
km/h
Gust
km/h
Spd
kts
Gust
kts
18/11:30pm 19.9 21.7 18.4 91 0.9 E 6 7 3 4 1015.6 1015.5 0.0
18/11:00pm 20.7 24.0 19.0 90 1.1 CALM 0 0 0 0 1015.9 1015.8 0.0
18/10:30pm 21.6 25.1 19.5 88 1.3 CALM 0 6 0 3 1016.0 1015.9 0.0
18/10:00pm 22.3 24.9 20.0 87 1.5 E 6 6 3 3 1016.1 1016.0 0.0
18/09:30pm 23.3 25.9 21.2 88 1.4 NE 9 13 5 7 1016.0 1015.9 0.0
18/09:00pm 23.3 25.7 20.8 86 1.6 E 9 11 5 6 1015.9 1015.8 0.0
18/08:30pm 23.0 25.4 20.1 84 1.9 SSE 7 9 4 5 1015.6 1015.5 0.0
18/08:00pm 24.0 26.8 20.5 81 2.3 E 6 9 3 5 1015.1 1015.0 0.0
18/07:30pm 24.8 27.2 20.9 79 2.6 ENE 9 11 5 6 1014.6 1014.5 0.0
18/07:00pm 25.9 29.1 21.6 77 2.9 NNE 7 9 4 5 1014.2 1014.1 0.0
18/06:30pm 26.6 30.4 21.6 74 3.3 WNW 4 9 2 5 1013.9 1013.8 0.0
18/06:00pm 26.9 29.5 21.2 71 3.8 W 9 17 5 9 1013.8 1013.7 0.0
18/05:30pm 27.6 29.5 21.4 69 4.1 WSW 13 19 7 10 1013.5 1013.4 0.0
18/05:00pm 27.9 29.3 21.0 66 4.6 WSW 15 30 8 16 1013.4 1013.3 0.0
18/04:30pm 29.3 31.0 20.2 58 6.0 SW 11 20 6 11 1013.2 1013.1 0.0
18/04:00pm 30.6 31.9 20.8 56 6.5 W 15 24 8 13 1013.2 1013.1 0.0
18/03:30pm 30.1 30.8 20.4 56 6.4 W 17 26 9 14 1013.2 1013.1 0.0
18/03:00pm 31.1 30.8 20.4 53 7.1 WNW 22 32 12 17 1013.5 1013.4 0.0
18/02:30pm 32.1 33.2 21.3 53 7.3 W 17 24 9 13 1013.9 1013.8 0.0
18/02:00pm 31.6 32.0 19.9 50 7.7 WNW 17 24 9 13 1014.2 1014.1 0.0
18/01:30pm 32.5 31.8 15.5 36 10.6 E 13 22 7 12 1014.6 1014.5 0.0
18/01:00pm 32.0 31.5 17.8 42 9.1 E 17 24 9 13 1015.1 1015.0 0.0
18/12:30pm 30.8 31.2 18.2 47 8.1 E 13 22 7 12 1015.5 1015.4 0.0
18/12:00pm 30.6 30.3 18.3 47 7.9 E 17 24 9 13 1016.2 1016.1 0.0
18/11:30am 30.8 29.9 18.2 47 8.1 ENE 20 30 11 16 1016.6 1016.5 0.0
18/11:00am 29.7 29.5 19.4 54 6.7 E 19 30 10 16 1017.3 1017.2 0.0
18/10:30am 29.4 30.1 18.8 53 6.8 ESE 13 20 7 11 1017.5 1017.4 0.0
18/10:00am 28.6 28.2 19.0 56 6.2 ESE 19 30 10 16 1017.8 1017.7 0.0
18/09:30am 28.3 28.3 19.8 60 5.5 E 19 28 10 15 1017.4 1017.3 0.0
18/09:00am 27.2 29.3 21.7 72 3.7 E 13 26 7 14 1017.0 1016.9 0.0
18/08:30am 25.4 27.8 22.3 83 2.1 S 13 19 7 10 1016.4 1016.3 0.0
18/08:00am 23.8 27.8 21.3 86 1.6 SE 2 11 1 6 1016.2 1016.1 0.0
18/07:30am 21.1 24.3 18.9 87 1.4 CALM 0 4 0 2 1015.7 1015.6 0.0
18/07:00am 18.0 19.3 17.0 94 0.6 SE 6 7 3 4 1015.3 1015.2 0.0
18/06:30am 16.5 18.3 15.4 93 0.6 CALM 0 0 0 0 1014.9 1014.8 0.0
18/06:00am 16.3 17.3 15.3 94 0.6 ESE 4 7 2 4 1014.5 1014.4 0.0
18/05:30am 16.6 17.8 15.8 95 0.5 SSE 4 7 2 4 1014.2 1014.1 0.0
18/05:00am 16.9 17.9 16.4 97 0.3 SE 6 7 3 4 1014.0 1013.9 0.0
18/04:30am 16.9 18.8 16.6 98 0.2 ESE 2 6 1 3 1013.8 1013.7 0.0
18/04:00am 16.8 19.0 16.6 99 0.1 CALM 0 0 0 0 1013.7 1013.6 0.0
18/03:30am 16.6 18.7 16.3 98 0.2 CALM 0 0 0 0 1013.9 1013.8 0.0
18/03:00am 17.0 19.2 16.5 97 0.3 CALM 0 0 0 0 1013.8 1013.7 0.0
18/02:30am 17.2 18.9 16.2 94 0.6 E 2 7 1 4 1013.8 1013.7 0.0
18/02:00am 17.9 20.3 16.9 94 0.6 CALM 0 0 0 0 1014.1 1014.0 0.0
18/01:30am 18.2 20.8 17.4 95 0.5 CALM 0 0 0 0 1014.5 1014.4 0.0
18/01:00am 18.6 21.0 17.1 91 0.9 CALM 0 0 0 0 1014.6 1014.5 0.0
18/12:59am 18.6 21.0 17.1 91 0.9 CALM 0 0 0 0 1014.6 1014.5 0.0
18/12:30am 19.4 22.1 17.7 90 1.0 CALM 0 0 0 0 1014.8 1014.7 0.0
18/12:18am 19.5 22.2 17.8 90 1.0 CALM 0 0 0 0 1014.9 1014.8 0.0
18/12:00am 20.0 22.9 18.3 90 1.1 CALM 0 0 0 0 1014.9 1014.8 0.0
 
Date/Time
CST
Temp
°C
App
Temp
°C
Dew
Point
Rel
Hum
%
Delta-T
°C
Wind Press
QNH
hPa
Press
MSL
hPa
Rain
since 9 am
mm
Dir
 
Spd
km/h
Gust
km/h
Spd
kts
Gust
kts
17/11:39pm 20.4 23.4 18.5 89 1.2 CALM 0 0 0 0 1015.0 1014.9 0.0
17/11:30pm 20.8 23.2 18.9 89 1.2 E 4 7 2 4 1015.0 1014.9 0.0
17/11:21pm 20.7 23.1 18.8 89 1.2 E 4 7 2 4 1015.1 1015.0 0.0
17/11:00pm 21.1 24.5 19.4 90 1.1 CALM 0 0 0 0 1015.2 1015.1 0.0
17/10:53pm 21.1 24.4 19.2 89 1.2 CALM 0 0 0 0 1015.3 1015.2 0.0
17/10:30pm 21.4 24.7 19.1 87 1.5 CALM 0 0 0 0 1015.2 1015.1 0.0
17/10:00pm 22.0 24.2 19.2 84 1.8 E 6 7 3 4 1015.2 1015.1 0.0
17/09:30pm 22.6 25.1 19.9 85 1.7 E 6 7 3 4 1015.2 1015.1 0.0
17/09:00pm 23.3 25.7 20.1 82 2.1 E 7 9 4 5 1015.0 1014.9 0.0
17/08:30pm 23.8 26.0 19.7 78 2.6 E 7 9 4 5 1014.7 1014.6 0.0
17/08:00pm 24.6 26.5 19.0 71 3.6 E 7 11 4 6 1014.5 1014.4 0.0
17/07:30pm 25.6 26.8 18.3 64 4.6 ENE 9 13 5 7 1014.2 1014.1 0.0
17/07:00pm 26.4 27.2 17.2 57 5.7 ENE 9 11 5 6 1013.7 1013.6 0.0
17/06:30pm 27.6 28.4 17.2 53 6.5 ENE 9 15 5 8 1013.4 1013.3 0.0
17/06:00pm 28.8 29.0 17.7 51 7.0 E 13 15 7 8 1013.3 1013.2 0.0
17/05:30pm 29.6 29.3 17.4 47 7.7 E 15 20 8 11 1013.1 1013.0 0.0
17/05:00pm 30.1 30.5 17.2 46 8.2 ESE 11 17 6 9 1012.7 1012.6 0.0
17/04:30pm 30.1 29.4 16.5 44 8.5 SE 15 20 8 11 1012.5 1012.4 0.0
17/04:00pm 31.2 30.4 17.1 42 8.9 E 17 28 9 15 1012.5 1012.4 0.0
17/03:30pm 30.8 29.2 16.4 42 9.0 E 20 24 11 13 1012.5 1012.4 0.0
17/03:00pm 30.9 30.1 17.2 43 8.7 ESE 17 33 9 18 1012.6 1012.5 0.0
17/02:30pm 31.1 30.4 17.4 44 8.7 ESE 17 30 9 16 1012.9 1012.8 0.0
17/02:00pm 31.9 30.8 17.8 43 9.0 E 20 35 11 19 1013.2 1013.1 0.0
17/01:30pm 31.3 29.6 17.2 42 9.0 E 22 33 12 18 1013.5 1013.4 0.0
17/01:00pm 31.1 31.0 17.8 45 8.5 ESE 15 22 8 12 1014.0 1013.9 0.0
17/12:30pm 31.3 30.1 17.6 44 8.7 E 20 28 11 15 1014.4 1014.3 0.0
17/12:00pm 30.3 29.4 18.1 48 7.8 E 20 30 11 16 1014.8 1014.7 0.0
17/11:30am 30.1 29.2 18.2 49 7.6 E 20 30 11 16 1015.0 1014.9 0.0
17/11:00am 30.1 29.3 18.5 49 7.5 E 20 30 11 16 1015.2 1015.1 0.0
17/10:30am 30.2 29.5 18.3 49 7.6 E 19 24 10 13 1015.4 1015.3 0.0
17/10:00am 30.1 27.5 16.9 45 8.3 NE 26 35 14 19 1015.4 1015.3 0.0
17/09:30am 29.9 30.7 17.4 47 7.9 ESE 9 15 5 8 1015.1 1015.0 0.0
17/09:00am 28.0 30.1 19.0 58 5.8 SE 6 13 3 7 1015.1 1015.0 -
17/08:30am 24.9 28.1 20.4 76 2.9 SE 4 7 2 4 1014.9 1014.8 -
17/08:00am 22.6 25.8 18.8 79 2.4 CALM 0 0 0 0 1014.7 1014.6 -
17/07:30am 19.6 21.9 16.8 84 1.7 CALM 0 6 0 3 1014.3 1014.2 -
17/07:00am 16.8 18.4 14.8 88 1.2 CALM 0 6 0 3 1013.9 1013.8 -
17/06:30am 15.4 16.8 14.3 93 0.6 CALM 0 0 0 0 1013.5 1013.4 -
17/06:00am 15.4 16.8 14.3 93 0.6 CALM 0 0 0 0 1012.9 1012.8 -
17/05:30am 15.8 17.2 14.5 92 0.7 CALM 0 0 0 0 1012.7 1012.6 -

Other Formats:

Comma delimited format used in spreadsheet applications
http://www.bom.gov.au/fwo/IDD60801/IDD60801.94153.axf

JavaScript Object Notation format (JSON) in row-major order
http://www.bom.gov.au/fwo/IDD60801/IDD60801.94153.json